EDDH/HAM METAR and TAF weather

Enter ICAO airport designator
Example: see airport list
Station Type Date Time Source
EDDH METAR 2016/12/08 07:20 UTC NOAA

EDDH 080720Z 25011KT 9999 BKN022 08/03 Q1024 NOSIG


Station Type Date Time Source
EDDH Decoded METAR 2016/12/08 07:20 UTC NOAA

Hamburg-Fuhlsbuettel, Germany (EDDH) 53-38N 010-00E 15M
Dec 08, 2016 - 02:20 AM EST / 2016.12.08 0720 UTC
Wind: from the WSW (250 degrees) at 13 MPH (11 KT):0
Visibility: greater than 7 mile(s):0
Sky conditions: mostly cloudy
Temperature: 46 F (8 C)
Dew Point: 37 F (3 C)
Relative Humidity: 70%
Pressure (altimeter): 30.24 in. Hg (1024 hPa)
ob: EDDH 080720Z 25011KT 9999 BKN022 08/03 Q1024 NOSIG
cycle: 7

Station Type Date Time Source
EDDH TAF 2016/12/08 06:27 UTC NOAA

TAF EDDH 080500Z 0806/0912 24012KT CAVOK PROB30
TEMPO 0808/0818 BKN013 PROB30
TEMPO 0812/0816 BKN007
TEMPO 0822/0824 BKN012
TEMPO 0900/0912 BKN007